sensor_id;sensor_type;location;lat;lon;timestamp;temperature;humidity
46123;DHT22;31856;-35.404;149.120;2023-05-19T00:00:51;6.80;67.90
46123;DHT22;31856;-35.404;149.120;2023-05-19T00:03:22;6.90;67.80
46123;DHT22;31856;-35.404;149.120;2023-05-19T00:05:52;7.00;67.60
46123;DHT22;31856;-35.404;149.120;2023-05-19T00:08:22;7.10;67.10
46123;DHT22;31856;-35.404;149.120;2023-05-19T00:10:52;7.20;66.10
46123;DHT22;31856;-35.404;149.120;2023-05-19T00:13:22;7.20;65.90
46123;DHT22;31856;-35.404;149.120;2023-05-19T00:49:26;8.70;60.80
46123;DHT22;31856;-35.404;149.120;2023-05-19T00:51:56;8.70;59.50
46123;DHT22;31856;-35.404;149.120;2023-05-19T00:54:26;8.80;59.40
46123;DHT22;31856;-35.404;149.120;2023-05-19T00:56:56;8.80;58.70
46123;DHT22;31856;-35.404;149.120;2023-05-19T00:59:27;8.80;58.00
46123;DHT22;31856;-35.404;149.120;2023-05-19T01:01:59;8.90;57.70
46123;DHT22;31856;-35.404;149.120;2023-05-19T01:04:30;9.00;57.90
46123;DHT22;31856;-35.404;149.120;2023-05-19T01:07:02;9.20;57.70
46123;DHT22;31856;-35.404;149.120;2023-05-19T01:09:32;9.20;56.50
46123;DHT22;31856;-35.404;149.120;2023-05-19T01:12:01;9.30;55.50
46123;DHT22;31856;-35.404;149.120;2023-05-19T01:14:31;9.30;55.60
46123;DHT22;31856;-35.404;149.120;2023-05-19T01:17:06;9.40;55.50
46123;DHT22;31856;-35.404;149.120;2023-05-19T01:27:51;9.80;54.20
46123;DHT22;31856;-35.404;149.120;2023-05-19T01:30:29;9.90;53.50
46123;DHT22;31856;-35.404;149.120;2023-05-19T01:33:02;9.90;52.60
46123;DHT22;31856;-35.404;149.120;2023-05-19T01:35:37;9.90;53.50
46123;DHT22;31856;-35.404;149.120;2023-05-19T01:38:07;10.00;52.20
46123;DHT22;31856;-35.404;149.120;2023-05-19T01:40:38;10.10;52.20
46123;DHT22;31856;-35.404;149.120;2023-05-19T01:43:09;10.10;50.20
46123;DHT22;31856;-35.404;149.120;2023-05-19T01:45:39;10.20;50.70
46123;DHT22;31856;-35.404;149.120;2023-05-19T04:03:54;12.80;55.30
46123;DHT22;31856;-35.404;149.120;2023-05-19T04:06:24;12.80;56.30
46123;DHT22;31856;-35.404;149.120;2023-05-19T04:08:53;12.80;56.30
46123;DHT22;31856;-35.404;149.120;2023-05-19T04:11:23;12.80;56.50
46123;DHT22;31856;-35.404;149.120;2023-05-19T04:13:53;12.80;56.80
46123;DHT22;31856;-35.404;149.120;2023-05-19T04:16:23;12.80;56.80
46123;DHT22;31856;-35.404;149.120;2023-05-19T04:18:52;12.80;57.10
46123;DHT22;31856;-35.404;149.120;2023-05-19T04:21:23;12.80;56.90
46123;DHT22;31856;-35.404;149.120;2023-05-19T04:23:53;12.80;56.60
46123;DHT22;31856;-35.404;149.120;2023-05-19T04:26:22;12.80;56.70
46123;DHT22;31856;-35.404;149.120;2023-05-19T04:28:54;12.80;56.70
46123;DHT22;31856;-35.404;149.120;2023-05-19T04:31:24;12.90;57.10
46123;DHT22;31856;-35.404;149.120;2023-05-19T04:33:53;12.90;57.00
46123;DHT22;31856;-35.404;149.120;2023-05-19T04:36:23;12.80;56.80
46123;DHT22;31856;-35.404;149.120;2023-05-19T04:38:52;12.80;56.30
46123;DHT22;31856;-35.404;149.120;2023-05-19T04:41:22;12.80;56.70
46123;DHT22;31856;-35.404;149.120;2023-05-19T04:43:52;12.80;57.00
46123;DHT22;31856;-35.404;149.120;2023-05-19T04:46:21;12.80;56.60
46123;DHT22;31856;-35.404;149.120;2023-05-19T04:48:52;12.80;56.70
46123;DHT22;31856;-35.404;149.120;2023-05-19T04:51:23;12.80;57.00
46123;DHT22;31856;-35.404;149.120;2023-05-19T04:53:56;12.80;56.90
46123;DHT22;31856;-35.404;149.120;2023-05-19T04:56:26;12.80;56.90
46123;DHT22;31856;-35.404;149.120;2023-05-19T04:58:56;12.90;56.70
46123;DHT22;31856;-35.404;149.120;2023-05-19T05:01:26;13.00;56.60
46123;DHT22;31856;-35.404;149.120;2023-05-19T06:46:57;10.90;59.50
46123;DHT22;31856;-35.404;149.120;2023-05-19T06:49:27;10.80;60.00
46123;DHT22;31856;-35.404;149.120;2023-05-19T06:51:57;10.80;60.20
46123;DHT22;31856;-35.404;149.120;2023-05-19T06:54:27;10.60;60.70
46123;DHT22;31856;-35.404;149.120;2023-05-19T06:56:56;10.60;60.90
46123;DHT22;31856;-35.404;149.120;2023-05-19T06:59:25;10.50;61.00
46123;DHT22;31856;-35.404;149.120;2023-05-19T07:01:55;10.40;61.30
46123;DHT22;31856;-35.404;149.120;2023-05-19T07:04:25;10.40;61.20
46123;DHT22;31856;-35.404;149.120;2023-05-19T07:06:54;10.30;61.40
46123;DHT22;31856;-35.404;149.120;2023-05-19T07:09:24;10.20;62.00
46123;DHT22;31856;-35.404;149.120;2023-05-19T07:11:54;10.20;62.10
46123;DHT22;31856;-35.404;149.120;2023-05-19T07:14:24;10.20;62.40
46123;DHT22;31856;-35.404;149.120;2023-05-19T07:16:54;10.00;62.70
46123;DHT22;31856;-35.404;149.120;2023-05-19T07:19:24;9.90;63.10
46123;DHT22;31856;-35.404;149.120;2023-05-19T07:21:54;9.90;63.30
46123;DHT22;31856;-35.404;149.120;2023-05-19T07:24:24;9.80;63.60
46123;DHT22;31856;-35.404;149.120;2023-05-19T07:26:55;9.80;63.90
46123;DHT22;31856;-35.404;149.120;2023-05-19T07:29:25;9.70;64.20
46123;DHT22;31856;-35.404;149.120;2023-05-19T07:31:55;9.60;64.40
46123;DHT22;31856;-35.404;149.120;2023-05-19T07:34:25;9.60;64.70
46123;DHT22;31856;-35.404;149.120;2023-05-19T07:36:55;9.50;64.90
46123;DHT22;31856;-35.404;149.120;2023-05-19T07:39:26;9.40;65.20
46123;DHT22;31856;-35.404;149.120;2023-05-19T07:41:57;9.30;65.30
46123;DHT22;31856;-35.404;149.120;2023-05-19T07:44:26;9.40;65.40
46123;DHT22;31856;-35.404;149.120;2023-05-19T09:31:30;7.90;69.80
46123;DHT22;31856;-35.404;149.120;2023-05-19T09:34:01;7.80;69.90
46123;DHT22;31856;-35.404;149.120;2023-05-19T09:36:33;7.80;70.10
46123;DHT22;31856;-35.404;149.120;2023-05-19T09:39:11;7.80;70.20
46123;DHT22;31856;-35.404;149.120;2023-05-19T09:41:41;7.70;70.50
46123;DHT22;31856;-35.404;149.120;2023-05-19T09:44:24;7.60;70.40
46123;DHT22;31856;-35.404;149.120;2023-05-19T09:47:02;7.60;70.40
46123;DHT22;31856;-35.404;149.120;2023-05-19T09:49:32;7.60;70.50
46123;DHT22;31856;-35.404;149.120;2023-05-19T09:52:02;7.60;70.60
46123;DHT22;31856;-35.404;149.120;2023-05-19T09:54:36;7.50;70.60
46123;DHT22;31856;-35.404;149.120;2023-05-19T09:57:09;7.60;70.50
46123;DHT22;31856;-35.404;149.120;2023-05-19T09:59:40;7.60;70.60
46123;DHT22;31856;-35.404;149.120;2023-05-19T10:02:14;7.60;70.70
46123;DHT22;31856;-35.404;149.120;2023-05-19T10:04:46;7.50;70.80
46123;DHT22;31856;-35.404;149.120;2023-05-19T10:07:17;7.50;71.00
46123;DHT22;31856;-35.404;149.120;2023-05-19T10:09:48;7.50;70.90
46123;DHT22;31856;-35.404;149.120;2023-05-19T10:12:18;7.40;71.10
46123;DHT22;31856;-35.404;149.120;2023-05-19T10:14:48;7.30;71.30
46123;DHT22;31856;-35.404;149.120;2023-05-19T10:17:22;7.30;71.10
46123;DHT22;31856;-35.404;149.120;2023-05-19T10:19:53;7.30;71.00
46123;DHT22;31856;-35.404;149.120;2023-05-19T10:22:25;7.30;71.10
46123;DHT22;31856;-35.404;149.120;2023-05-19T10:25:00;7.20;71.40
46123;DHT22;31856;-35.404;149.120;2023-05-19T10:27:30;7.20;71.60
46123;DHT22;31856;-35.404;149.120;2023-05-19T10:30:12;7.10;72.00
46123;DHT22;31856;-35.404;149.120;2023-05-19T10:32:45;7.10;72.10
46123;DHT22;31856;-35.404;149.120;2023-05-19T10:38:09;7.00;72.30
46123;DHT22;31856;-35.404;149.120;2023-05-19T10:46:01;6.90;72.20
46123;DHT22;31856;-35.404;149.120;2023-05-19T10:48:32;6.80;72.70
46123;DHT22;31856;-35.404;149.120;2023-05-19T10:51:04;6.80;72.80
46123;DHT22;31856;-35.404;149.120;2023-05-19T10:53:40;6.80;73.20
46123;DHT22;31856;-35.404;149.120;2023-05-19T10:56:29;6.80;73.00
46123;DHT22;31856;-35.404;149.120;2023-05-19T10:59:01;6.80;73.00
46123;DHT22;31856;-35.404;149.120;2023-05-19T11:01:33;6.80;73.20
46123;DHT22;31856;-35.404;149.120;2023-05-19T11:04:04;6.70;73.20
46123;DHT22;31856;-35.404;149.120;2023-05-19T11:06:34;6.60;73.60
46123;DHT22;31856;-35.404;149.120;2023-05-19T11:09:15;6.60;73.10
46123;DHT22;31856;-35.404;149.120;2023-05-19T11:12:01;6.60;72.90
46123;DHT22;31856;-35.404;149.120;2023-05-19T11:14:33;6.50;72.80
46123;DHT22;31856;-35.404;149.120;2023-05-19T11:17:03;6.40;73.30
46123;DHT22;31856;-35.404;149.120;2023-05-19T11:19:33;6.40;73.60
46123;DHT22;31856;-35.404;149.120;2023-05-19T11:22:07;6.40;73.30
46123;DHT22;31856;-35.404;149.120;2023-05-19T11:24:37;6.30;73.50
46123;DHT22;31856;-35.404;149.120;2023-05-19T11:27:19;6.30;73.40
46123;DHT22;31856;-35.404;149.120;2023-05-19T11:46:18;6.10;73.90
46123;DHT22;31856;-35.404;149.120;2023-05-19T11:48:56;6.10;74.30
46123;DHT22;31856;-35.404;149.120;2023-05-19T11:51:27;6.00;74.40
46123;DHT22;31856;-35.404;149.120;2023-05-19T11:53:56;6.00;74.20
46123;DHT22;31856;-35.404;149.120;2023-05-19T11:56:26;5.90;74.90
46123;DHT22;31856;-35.404;149.120;2023-05-19T11:58:56;5.80;74.90
46123;DHT22;31856;-35.404;149.120;2023-05-19T12:01:26;5.80;75.00
46123;DHT22;31856;-35.404;149.120;2023-05-19T12:03:56;5.80;74.70
46123;DHT22;31856;-35.404;149.120;2023-05-19T12:06:26;5.80;74.80
46123;DHT22;31856;-35.404;149.120;2023-05-19T12:08:56;5.80;74.70
46123;DHT22;31856;-35.404;149.120;2023-05-19T12:11:27;5.70;74.60
46123;DHT22;31856;-35.404;149.120;2023-05-19T12:13:59;5.80;74.40
46123;DHT22;31856;-35.404;149.120;2023-05-19T12:16:35;5.70;75.00
46123;DHT22;31856;-35.404;149.120;2023-05-19T12:19:04;5.70;75.20
46123;DHT22;31856;-35.404;149.120;2023-05-19T12:21:34;5.60;75.20
46123;DHT22;31856;-35.404;149.120;2023-05-19T12:24:04;5.60;75.30
46123;DHT22;31856;-35.404;149.120;2023-05-19T12:26:34;5.50;75.40
46123;DHT22;31856;-35.404;149.120;2023-05-19T12:29:05;5.50;75.60
46123;DHT22;31856;-35.404;149.120;2023-05-19T12:31:35;5.50;75.50
46123;DHT22;31856;-35.404;149.120;2023-05-19T12:34:05;5.50;75.60
46123;DHT22;31856;-35.404;149.120;2023-05-19T12:36:35;5.40;75.80
46123;DHT22;31856;-35.404;149.120;2023-05-19T12:39:05;5.40;76.00
46123;DHT22;31856;-35.404;149.120;2023-05-19T12:41:37;5.30;76.00
46123;DHT22;31856;-35.404;149.120;2023-05-19T12:52:24;5.30;76.40
46123;DHT22;31856;-35.404;149.120;2023-05-19T12:55:01;5.30;76.40
46123;DHT22;31856;-35.404;149.120;2023-05-19T12:57:39;5.30;76.50
46123;DHT22;31856;-35.404;149.120;2023-05-19T13:00:13;5.30;76.60
46123;DHT22;31856;-35.404;149.120;2023-05-19T13:05:35;5.20;76.40
46123;DHT22;31856;-35.404;149.120;2023-05-19T13:08:07;5.20;76.60
46123;DHT22;31856;-35.404;149.120;2023-05-19T13:10:37;5.20;76.60
46123;DHT22;31856;-35.404;149.120;2023-05-19T13:13:07;5.20;76.90
46123;DHT22;31856;-35.404;149.120;2023-05-19T13:15:41;5.20;76.80
46123;DHT22;31856;-35.404;149.120;2023-05-19T13:18:12;5.10;76.80
46123;DHT22;31856;-35.404;149.120;2023-05-19T13:20:43;5.10;77.00
46123;DHT22;31856;-35.404;149.120;2023-05-19T13:23:13;5.10;76.90
46123;DHT22;31856;-35.404;149.120;2023-05-19T13:25:42;5.10;76.50
46123;DHT22;31856;-35.404;149.120;2023-05-19T13:28:13;5.00;76.60
46123;DHT22;31856;-35.404;149.120;2023-05-19T13:30:44;5.00;76.90
46123;DHT22;31856;-35.404;149.120;2023-05-19T13:33:14;5.00;76.90
46123;DHT22;31856;-35.404;149.120;2023-05-19T13:35:44;5.00;77.40
46123;DHT22;31856;-35.404;149.120;2023-05-19T13:38:14;5.00;77.60
46123;DHT22;31856;-35.404;149.120;2023-05-19T13:40:43;4.90;77.40
46123;DHT22;31856;-35.404;149.120;2023-05-19T13:43:13;4.90;77.20
46123;DHT22;31856;-35.404;149.120;2023-05-19T13:45:42;4.80;76.70
46123;DHT22;31856;-35.404;149.120;2023-05-19T14:08:29;4.80;77.40
46123;DHT22;31856;-35.404;149.120;2023-05-19T14:10:59;4.70;77.60
46123;DHT22;31856;-35.404;149.120;2023-05-19T14:13:28;4.70;77.50
46123;DHT22;31856;-35.404;149.120;2023-05-19T14:16:05;4.60;77.30
46123;DHT22;31856;-35.404;149.120;2023-05-19T14:18:36;4.60;77.00
46123;DHT22;31856;-35.404;149.120;2023-05-19T14:21:06;4.60;77.40
46123;DHT22;31856;-35.404;149.120;2023-05-19T14:23:35;4.40;77.50
46123;DHT22;31856;-35.404;149.120;2023-05-19T14:26:05;4.40;77.70
46123;DHT22;31856;-35.404;149.120;2023-05-19T14:28:34;4.40;78.00
46123;DHT22;31856;-35.404;149.120;2023-05-19T14:31:03;4.40;77.70
46123;DHT22;31856;-35.404;149.120;2023-05-19T14:33:34;4.40;77.00
46123;DHT22;31856;-35.404;149.120;2023-05-19T14:36:04;4.40;77.10
46123;DHT22;31856;-35.404;149.120;2023-05-19T14:38:34;4.30;77.30
46123;DHT22;31856;-35.404;149.120;2023-05-19T14:41:03;4.20;77.30
46123;DHT22;31856;-35.404;149.120;2023-05-19T14:43:33;4.20;76.80
46123;DHT22;31856;-35.404;149.120;2023-05-19T14:46:03;4.20;76.70
46123;DHT22;31856;-35.404;149.120;2023-05-19T14:48:32;4.10;76.90
46123;DHT22;31856;-35.404;149.120;2023-05-19T14:51:02;4.10;76.80
46123;DHT22;31856;-35.404;149.120;2023-05-19T14:53:32;4.10;76.40
46123;DHT22;31856;-35.404;149.120;2023-05-19T14:56:02;4.10;76.40
46123;DHT22;31856;-35.404;149.120;2023-05-19T14:58:32;4.00;76.80
46123;DHT22;31856;-35.404;149.120;2023-05-19T15:01:03;4.10;77.20
46123;DHT22;31856;-35.404;149.120;2023-05-19T15:03:32;3.90;77.60
46123;DHT22;31856;-35.404;149.120;2023-05-19T15:06:02;3.80;77.40
46123;DHT22;31856;-35.404;149.120;2023-05-19T17:38:03;2.40;78.20
46123;DHT22;31856;-35.404;149.120;2023-05-19T17:40:33;2.30;78.00
46123;DHT22;31856;-35.404;149.120;2023-05-19T17:43:03;2.30;77.80
46123;DHT22;31856;-35.404;149.120;2023-05-19T17:45:33;2.30;77.80
46123;DHT22;31856;-35.404;149.120;2023-05-19T17:48:04;2.30;78.10
46123;DHT22;31856;-35.404;149.120;2023-05-19T17:50:34;2.30;77.90
46123;DHT22;31856;-35.404;149.120;2023-05-19T17:53:03;2.30;78.40
46123;DHT22;31856;-35.404;149.120;2023-05-19T17:55:34;2.30;78.90
46123;DHT22;31856;-35.404;149.120;2023-05-19T17:58:03;2.30;79.30
46123;DHT22;31856;-35.404;149.120;2023-05-19T18:00:33;2.40;79.20
46123;DHT22;31856;-35.404;149.120;2023-05-19T18:03:03;2.40;79.30
46123;DHT22;31856;-35.404;149.120;2023-05-19T18:05:34;2.40;79.20
46123;DHT22;31856;-35.404;149.120;2023-05-19T18:08:05;2.40;79.00
46123;DHT22;31856;-35.404;149.120;2023-05-19T18:10:38;2.40;78.80
46123;DHT22;31856;-35.404;149.120;2023-05-19T18:13:09;2.30;78.70
46123;DHT22;31856;-35.404;149.120;2023-05-19T18:15:39;2.30;78.50
46123;DHT22;31856;-35.404;149.120;2023-05-19T18:18:08;2.20;78.40
46123;DHT22;31856;-35.404;149.120;2023-05-19T18:20:39;2.20;78.80
46123;DHT22;31856;-35.404;149.120;2023-05-19T18:23:12;2.20;79.20
46123;DHT22;31856;-35.404;149.120;2023-05-19T18:25:47;2.10;78.90
46123;DHT22;31856;-35.404;149.120;2023-05-19T18:28:17;2.10;78.60
46123;DHT22;31856;-35.404;149.120;2023-05-19T18:30:46;2.10;78.80
46123;DHT22;31856;-35.404;149.120;2023-05-19T18:33:16;2.10;78.50
46123;DHT22;31856;-35.404;149.120;2023-05-19T18:35:47;2.10;78.40
46123;DHT22;31856;-35.404;149.120;2023-05-19T18:44:44;2.10;78.90
46123;DHT22;31856;-35.404;149.120;2023-05-19T18:47:18;2.10;78.90
46123;DHT22;31856;-35.404;149.120;2023-05-19T18:49:47;2.10;78.80
46123;DHT22;31856;-35.404;149.120;2023-05-19T18:52:17;2.10;79.10
46123;DHT22;31856;-35.404;149.120;2023-05-19T18:54:50;2.10;79.10
46123;DHT22;31856;-35.404;149.120;2023-05-19T18:57:19;2.20;79.50
46123;DHT22;31856;-35.404;149.120;2023-05-19T18:59:49;2.20;79.70
46123;DHT22;31856;-35.404;149.120;2023-05-19T19:02:19;2.20;79.40
46123;DHT22;31856;-35.404;149.120;2023-05-19T19:04:48;2.20;79.50
46123;DHT22;31856;-35.404;149.120;2023-05-19T19:07:18;2.20;79.70
46123;DHT22;31856;-35.404;149.120;2023-05-19T19:09:49;2.20;79.90
46123;DHT22;31856;-35.404;149.120;2023-05-19T19:12:20;2.10;79.70
46123;DHT22;31856;-35.404;149.120;2023-05-19T19:14:50;2.10;79.80
46123;DHT22;31856;-35.404;149.120;2023-05-19T19:17:19;2.10;79.50
46123;DHT22;31856;-35.404;149.120;2023-05-19T19:19:49;2.00;79.40
46123;DHT22;31856;-35.404;149.120;2023-05-19T19:22:18;2.00;79.30
46123;DHT22;31856;-35.404;149.120;2023-05-19T19:24:48;1.90;79.30
46123;DHT22;31856;-35.404;149.120;2023-05-19T19:27:17;1.80;79.00
46123;DHT22;31856;-35.404;149.120;2023-05-19T19:29:48;1.80;78.80
46123;DHT22;31856;-35.404;149.120;2023-05-19T19:32:18;1.80;78.90
46123;DHT22;31856;-35.404;149.120;2023-05-19T19:34:48;1.80;78.90
46123;DHT22;31856;-35.404;149.120;2023-05-19T19:37:17;1.80;79.20
46123;DHT22;31856;-35.404;149.120;2023-05-19T19:39:48;1.70;79.10
46123;DHT22;31856;-35.404;149.120;2023-05-19T19:42:17;1.70;78.60
46123;DHT22;31856;-35.404;149.120;2023-05-19T20:20:11;1.50;78.50
46123;DHT22;31856;-35.404;149.120;2023-05-19T20:22:41;1.50;79.10
46123;DHT22;31856;-35.404;149.120;2023-05-19T20:25:15;1.50;79.40
46123;DHT22;31856;-35.404;149.120;2023-05-19T20:27:44;1.50;79.30
46123;DHT22;31856;-35.404;149.120;2023-05-19T20:30:14;1.40;79.30
46123;DHT22;31856;-35.404;149.120;2023-05-19T20:32:43;1.40;79.50
46123;DHT22;31856;-35.404;149.120;2023-05-19T20:35:14;1.40;79.50
46123;DHT22;31856;-35.404;149.120;2023-05-19T20:37:43;1.50;79.40
46123;DHT22;31856;-35.404;149.120;2023-05-19T20:40:15;1.40;79.30
46123;DHT22;31856;-35.404;149.120;2023-05-19T20:42:45;1.40;79.20
46123;DHT22;31856;-35.404;149.120;2023-05-19T20:45:14;1.50;79.20
46123;DHT22;31856;-35.404;149.120;2023-05-19T20:47:44;1.50;79.40
46123;DHT22;31856;-35.404;149.120;2023-05-19T20:50:13;1.50;79.80
46123;DHT22;31856;-35.404;149.120;2023-05-19T20:52:44;1.60;80.20
46123;DHT22;31856;-35.404;149.120;2023-05-19T20:55:13;1.60;80.40
46123;DHT22;31856;-35.404;149.120;2023-05-19T20:57:43;1.60;80.60
46123;DHT22;31856;-35.404;149.120;2023-05-19T21:00:13;1.60;80.40
46123;DHT22;31856;-35.404;149.120;2023-05-19T21:02:43;1.60;80.20
46123;DHT22;31856;-35.404;149.120;2023-05-19T21:05:13;1.60;80.10
46123;DHT22;31856;-35.404;149.120;2023-05-19T21:07:43;1.60;80.20
46123;DHT22;31856;-35.404;149.120;2023-05-19T21:10:12;1.60;80.30
46123;DHT22;31856;-35.404;149.120;2023-05-19T21:12:42;1.70;80.40
46123;DHT22;31856;-35.404;149.120;2023-05-19T21:15:11;1.70;80.80
46123;DHT22;31856;-35.404;149.120;2023-05-19T21:17:41;1.70;81.10
46123;DHT22;31856;-35.404;149.120;2023-05-19T21:22:56;1.70;80.80
46123;DHT22;31856;-35.404;149.120;2023-05-19T21:25:25;1.80;80.80
46123;DHT22;31856;-35.404;149.120;2023-05-19T21:27:55;1.70;80.60
46123;DHT22;31856;-35.404;149.120;2023-05-19T21:30:26;1.80;80.80
46123;DHT22;31856;-35.404;149.120;2023-05-19T21:32:55;1.80;80.90
46123;DHT22;31856;-35.404;149.120;2023-05-19T21:35:25;1.80;81.00
46123;DHT22;31856;-35.404;149.120;2023-05-19T21:37:55;1.80;81.00
46123;DHT22;31856;-35.404;149.120;2023-05-19T21:40:32;1.80;81.10
46123;DHT22;31856;-35.404;149.120;2023-05-19T21:43:02;1.80;80.80
46123;DHT22;31856;-35.404;149.120;2023-05-19T21:45:33;1.90;80.90
46123;DHT22;31856;-35.404;149.120;2023-05-19T21:48:03;1.90;81.20
46123;DHT22;31856;-35.404;149.120;2023-05-19T21:50:36;1.90;81.20
46123;DHT22;31856;-35.404;149.120;2023-05-19T21:53:06;2.00;81.60
46123;DHT22;31856;-35.404;149.120;2023-05-19T21:55:36;2.00;81.70
46123;DHT22;31856;-35.404;149.120;2023-05-19T21:58:06;2.10;81.80
46123;DHT22;31856;-35.404;149.120;2023-05-19T22:00:36;2.10;81.80
46123;DHT22;31856;-35.404;149.120;2023-05-19T22:03:05;2.20;81.70
46123;DHT22;31856;-35.404;149.120;2023-05-19T22:05:35;2.20;82.00
46123;DHT22;31856;-35.404;149.120;2023-05-19T22:08:06;2.30;82.20
46123;DHT22;31856;-35.404;149.120;2023-05-19T22:10:35;2.40;82.30
46123;DHT22;31856;-35.404;149.120;2023-05-19T22:13:05;2.50;82.40
46123;DHT22;31856;-35.404;149.120;2023-05-19T22:15:34;2.60;82.70
46123;DHT22;31856;-35.404;149.120;2023-05-19T22:18:05;2.60;82.80
46123;DHT22;31856;-35.404;149.120;2023-05-19T22:20:34;2.70;83.00
